Time;durP1;ratioP1;P1;durP2;ratioP2;P2;SDS_P1;SDS_P2;PMS_P1;PMS_P2;Temp;Humidity;BMP_temperature;BMP_pressure;BME280_temperature;BME280_humidity;BME280_pressure;Samples;Min_cycle;Max_cycle;Signal;HPM_P1;HPM_P2
2022/04/05 00:02:24;;;;;;;16.83;9.13;;;-1.40;99.90;;;;;;4992632;28;20238;-63
2022/04/05 00:04:50;;;;;;;15.97;8.83;;;-1.40;99.90;;;;;;4975097;28;20971;-63
2022/04/05 00:07:16;;;;;;;15.70;8.67;;;-1.40;99.90;;;;;;4992713;28;20199;-63
2022/04/05 00:09:42;;;;;;;18.30;9.97;;;-1.50;99.90;;;;;;4992498;28;20183;-63
2022/04/05 00:12:08;;;;;;;16.07;8.93;;;-1.50;99.90;;;;;;4991328;28;20739;-64
2022/04/05 00:14:34;;;;;;;16.80;8.80;;;-1.50;99.90;;;;;;4992161;28;20637;-66
2022/04/05 00:17:02;;;;;;;18.57;8.93;;;-1.60;99.90;;;;;;4992413;28;20274;-63
2022/04/05 00:19:29;;;;;;;24.37;9.43;;;-1.60;99.90;;;;;;4995305;28;20249;-63
2022/04/05 00:21:55;;;;;;;22.97;9.70;;;-1.70;99.90;;;;;;5012066;28;20182;-63
2022/04/05 00:24:21;;;;;;;17.60;9.10;;;-1.70;99.90;;;;;;4993739;28;20240;-64
2022/04/05 00:26:46;;;;;;;18.80;9.60;;;-1.80;99.90;;;;;;5011615;28;20535;-64
2022/04/05 00:29:12;;;;;;;17.63;8.17;;;-1.80;99.90;;;;;;5012421;28;20187;-63
2022/04/05 00:31:38;;;;;;;16.17;8.17;;;-1.70;99.90;;;;;;5012260;28;20271;-63
2022/04/05 00:34:04;;;;;;;15.67;8.03;;;-1.60;99.90;;;;;;5012054;28;20209;-63
2022/04/05 00:36:30;;;;;;;18.27;8.50;;;-1.50;99.90;;;;;;5012179;28;20214;-63
2022/04/05 00:38:56;;;;;;;14.93;8.10;;;-1.40;99.90;;;;;;5012068;28;20240;-63
2022/04/05 00:41:22;;;;;;;20.67;8.30;;;-1.40;99.90;;;;;;5012210;28;20593;-63
2022/04/05 00:43:47;;;;;;;18.03;9.00;;;-1.30;99.90;;;;;;5011546;28;20178;-64
2022/04/05 00:46:13;;;;;;;15.20;8.00;;;-1.30;99.90;;;;;;5011846;28;20186;-64
2022/04/05 00:48:57;;;;;;;13.87;7.60;;;-1.20;99.90;;;;;;5010473;28;20194;-65
2022/04/05 00:51:24;;;;;;;14.93;7.90;;;-1.20;99.90;;;;;;5012120;28;20250;-65
2022/04/05 00:53:57;;;;;;;15.90;8.33;;;-1.20;99.90;;;;;;5011881;28;20186;-64
2022/04/05 00:56:26;;;;;;;17.43;8.00;;;-1.20;99.90;;;;;;5011711;28;20218;-64
2022/04/05 00:58:58;;;;;;;13.70;7.73;;;-1.20;99.90;;;;;;5012026;28;20574;-65
2022/04/05 01:01:27;;;;;;;15.27;8.90;;;-1.30;99.90;;;;;;5012173;28;20232;-65
2022/04/05 01:03:53;;;;;;;16.50;7.60;;;-1.40;99.90;;;;;;5011480;28;20241;-65
2022/04/05 01:06:40;;;;;;;15.20;7.90;;;-1.50;99.90;;;;;;5012023;28;20191;-64
2022/04/05 01:09:09;;;;;;;15.33;8.83;;;-1.50;99.90;;;;;;5011507;28;20195;-64
2022/04/05 01:11:36;;;;;;;17.33;8.70;;;-1.50;99.90;;;;;;5012255;28;20487;-64
2022/04/05 01:14:02;;;;;;;15.50;8.20;;;-1.40;99.90;;;;;;5015941;28;20182;-64
2022/04/05 01:16:28;;;;;;;15.67;8.40;;;-1.50;99.90;;;;;;5015924;28;20264;-64
2022/04/05 01:18:54;;;;;;;15.73;7.63;;;-1.50;99.90;;;;;;5015482;28;20236;-64
2022/04/05 01:21:20;;;;;;;13.57;7.77;;;-1.60;99.90;;;;;;5015974;28;20617;-62
2022/04/05 01:24:11;;;;;;;17.30;9.10;;;-1.60;99.90;;;;;;5015399;28;20182;-63
2022/04/05 01:26:57;;;;;;;18.17;8.87;;;-1.60;99.90;;;;;;5015455;28;20191;-63
2022/04/05 01:29:25;;;;;;;15.83;9.40;;;-1.60;99.90;;;;;;4998125;28;20177;-62
2022/04/05 01:31:58;;;;;;;14.20;7.77;;;-1.70;99.90;;;;;;5015215;28;20205;-62
2022/04/05 01:34:25;;;;;;;19.13;9.30;;;-1.80;99.90;;;;;;5015377;28;20181;-63
2022/04/05 01:36:59;;;;;;;16.50;8.33;;;-1.80;99.90;;;;;;5015261;28;20647;-63
2022/04/05 01:39:28;;;;;;;16.53;8.37;;;-1.90;99.90;;;;;;5015598;28;20172;-63
2022/04/05 01:41:57;;;;;;;16.03;9.23;;;-1.90;99.90;;;;;;5015005;28;20184;-63
2022/04/05 01:44:24;;;;;;;15.70;8.53;;;-2.10;99.90;;;;;;5014065;28;20182;-63
2022/04/05 01:46:50;;;;;;;19.17;8.17;;;-2.00;99.90;;;;;;5015324;28;20186;-63
2022/04/05 01:49:16;;;;;;;14.57;7.70;;;-2.00;99.90;;;;;;5013742;28;20540;-63
2022/04/05 01:51:44;;;;;;;17.70;8.73;;;-2.00;99.90;;;;;;5014966;28;20187;-63
2022/04/05 01:54:11;;;;;;;19.33;8.33;;;-2.00;99.90;;;;;;5015158;28;20273;-63
2022/04/05 01:56:48;;;;;;;15.87;7.87;;;-1.90;99.90;;;;;;5014812;28;20260;-63
2022/04/05 01:59:16;;;;;;;16.37;8.63;;;-1.90;99.90;;;;;;5013382;28;20601;-63
2022/04/05 02:01:42;;;;;;;17.13;7.60;;;-1.90;99.90;;;;;;5014113;28;20273;-63
2022/04/05 02:04:10;;;;;;;14.80;8.10;;;-2.00;99.90;;;;;;5014897;28;20185;-62
2022/04/05 02:06:37;;;;;;;13.03;7.03;;;-1.90;99.90;;;;;;5014518;28;20705;-63
2022/04/05 02:09:03;;;;;;;12.87;7.53;;;-1.90;99.90;;;;;;5014877;28;20189;-63
2022/04/05 02:11:28;;;;;;;11.87;7.50;;;-1.90;99.90;;;;;;5014795;28;20639;-63
2022/04/05 02:13:54;;;;;;;16.00;8.23;;;-1.90;99.90;;;;;;5014337;28;20182;-63
2022/04/05 02:16:20;;;;;;;13.10;7.40;;;-1.90;99.90;;;;;;5014661;28;20230;-64
2022/04/05 02:18:45;;;;;;;12.33;7.40;;;-1.80;99.90;;;;;;5014344;28;20189;-64
2022/04/05 02:21:11;;;;;;;14.50;7.13;;;-1.80;99.90;;;;;;5014165;28;20244;-64
2022/04/05 02:23:37;;;;;;;12.43;7.40;;;-1.90;99.90;;;;;;5012517;28;20265;-64
2022/04/05 02:26:03;;;;;;;13.57;7.33;;;-2.00;99.90;;;;;;5012795;28;20584;-64
2022/04/05 02:28:29;;;;;;;14.93;7.93;;;-2.00;99.90;;;;;;5014193;28;20186;-64
2022/04/05 02:30:54;;;;;;;13.77;8.00;;;-2.10;99.90;;;;;;5013827;28;20189;-64
2022/04/05 02:33:20;;;;;;;14.57;8.17;;;-2.00;99.90;;;;;;5013970;28;20183;-64
2022/04/05 02:35:48;;;;;;;13.77;7.03;;;-2.00;99.90;;;;;;5013733;28;20690;-64
2022/04/05 02:38:14;;;;;;;12.83;7.13;;;-2.00;99.90;;;;;;5014189;28;20190;-64
2022/04/05 02:40:40;;;;;;;15.33;7.60;;;-2.00;99.90;;;;;;5013926;28;20645;-63
2022/04/05 02:43:06;;;;;;;15.73;7.23;;;-2.00;99.90;;;;;;5013681;28;20188;-64
2022/04/05 02:45:33;;;;;;;17.47;8.60;;;-2.00;99.90;;;;;;5013550;28;20646;-64
2022/04/05 02:47:58;;;;;;;26.83;9.23;;;-1.90;99.90;;;;;;5014198;28;20181;-64
2022/04/05 02:50:24;;;;;;;18.53;8.63;;;-1.90;99.90;;;;;;5013480;28;20187;-64
2022/04/05 02:52:50;;;;;;;15.83;8.97;;;-1.90;99.90;;;;;;5012438;28;20190;-63
2022/04/05 02:55:17;;;;;;;20.53;10.37;;;-2.00;99.90;;;;;;5013910;28;20229;-64
2022/04/05 02:57:44;;;;;;;19.30;9.07;;;-2.00;99.90;;;;;;5013734;28;20252;-66
2022/04/05 03:00:12;;;;;;;22.30;9.87;;;-2.10;99.90;;;;;;5012034;28;20194;-64
2022/04/05 03:02:39;;;;;;;18.37;10.03;;;-2.10;99.90;;;;;;5013958;28;20189;-64
2022/04/05 03:05:06;;;;;;;16.67;8.53;;;-2.20;99.90;;;;;;5012056;28;20185;-64
2022/04/05 03:07:34;;;;;;;15.57;8.20;;;-2.20;99.90;;;;;;5013716;28;20643;-64
2022/04/05 03:10:01;;;;;;;17.07;8.30;;;-2.30;99.90;;;;;;5012839;28;20637;-65
2022/04/05 03:12:27;;;;;;;21.03;8.53;;;-2.40;99.90;;;;;;5013440;28;20200;-64
2022/04/05 03:14:52;;;;;;;13.43;7.70;;;-2.30;99.90;;;;;;5012729;28;20654;-64
2022/04/05 03:17:18;;;;;;;20.07;8.20;;;-2.30;99.90;;;;;;5010398;28;20600;-64
2022/04/05 03:19:44;;;;;;;15.83;8.17;;;-2.20;99.90;;;;;;4994806;28;20233;-64
2022/04/05 03:22:10;;;;;;;16.07;8.43;;;-2.30;99.90;;;;;;5014055;28;20189;-64
2022/04/05 03:24:36;;;;;;;15.23;7.30;;;-2.30;99.90;;;;;;4994823;28;20178;-64
2022/04/05 03:27:02;;;;;;;17.93;8.30;;;-2.40;99.90;;;;;;4979001;28;20481;-64
2022/04/05 03:29:28;;;;;;;13.80;7.17;;;-2.30;99.90;;;;;;5012591;28;20267;-64
2022/04/05 03:31:54;;;;;;;12.93;7.73;;;-2.30;99.90;;;;;;5012523;28;20268;-63
2022/04/05 03:34:20;;;;;;;28.50;10.13;;;-2.30;99.90;;;;;;5012736;28;20201;-63
2022/04/05 03:36:46;;;;;;;15.00;8.03;;;-2.30;99.90;;;;;;5011615;28;20552;-64
2022/04/05 03:39:14;;;;;;;19.47;8.80;;;-2.30;99.90;;;;;;5012601;28;20196;-63
2022/04/05 03:41:44;;;;;;;20.77;10.47;;;-2.40;99.90;;;;;;5012977;28;20176;-64
2022/04/05 03:44:10;;;;;;;18.97;9.43;;;-2.40;99.90;;;;;;5012225;28;20189;-64
2022/04/05 03:46:36;;;;;;;20.17;10.63;;;-2.50;99.90;;;;;;5013077;28;20181;-63
2022/04/05 03:49:03;;;;;;;20.60;11.30;;;-2.60;99.90;;;;;;5012238;28;20180;-65
2022/04/05 03:51:28;;;;;;;24.37;10.37;;;-2.60;99.90;;;;;;5012561;28;20239;-64
2022/04/05 03:53:55;;;;;;;17.73;9.00;;;-2.60;99.90;;;;;;5012279;28;20193;-64
2022/04/05 03:56:21;;;;;;;14.97;8.40;;;-2.50;99.90;;;;;;5012168;28;20212;-64
2022/04/05 03:58:47;;;;;;;17.27;8.90;;;-2.60;99.90;;;;;;5012111;28;20263;-65
2022/04/05 04:01:13;;;;;;;21.17;8.93;;;-2.60;99.90;;;;;;5011821;28;20548;-65
2022/04/05 04:03:39;;;;;;;24.90;11.07;;;-2.50;99.90;;;;;;5012649;28;20264;-62
2022/04/05 04:06:05;;;;;;;17.83;10.53;;;-2.40;99.90;;;;;;5012403;28;20197;-63
2022/04/05 04:08:31;;;;;;;18.93;9.17;;;-2.30;99.90;;;;;;5011897;28;20214;-63
2022/04/05 04:10:56;;;;;;;21.87;9.33;;;-2.20;99.90;;;;;;5011732;28;20182;-64
2022/04/05 04:13:22;;;;;;;18.70;9.07;;;-2.20;99.90;;;;;;5012564;28;20248;-63
2022/04/05 04:15:48;;;;;;;17.50;8.93;;;-2.10;99.90;;;;;;5011427;28;20212;-63
2022/04/05 04:18:14;;;;;;;16.17;9.10;;;-2.00;99.90;;;;;;5010650;28;20197;-63
2022/04/05 04:20:42;;;;;;;18.77;8.93;;;-2.00;99.90;;;;;;4993935;28;20245;-63
2022/04/05 04:23:09;;;;;;;20.13;9.47;;;-2.00;99.90;;;;;;5011757;28;20188;-64
2022/04/05 04:25:37;;;;;;;14.87;8.47;;;-2.00;99.90;;;;;;5009348;28;20193;-64
2022/04/05 04:28:07;;;;;;;33.63;10.77;;;-2.10;99.90;;;;;;5009133;28;20642;-64
2022/04/05 04:30:34;;;;;;;18.67;8.93;;;-2.10;99.90;;;;;;5011260;28;20177;-65
2022/04/05 04:33:00;;;;;;;25.37;10.30;;;-2.10;99.90;;;;;;4988931;28;20346;-65
2022/04/05 04:35:26;;;;;;;21.87;9.63;;;-2.00;99.90;;;;;;5011094;28;20304;-65
2022/04/05 04:37:52;;;;;;;18.33;9.60;;;-1.90;99.90;;;;;;5030970;28;20181;-65
2022/04/05 04:40:19;;;;;;;27.40;10.50;;;-1.70;99.90;;;;;;5007137;28;20210;-65
2022/04/05 04:42:45;;;;;;;17.87;8.97;;;-1.60;99.90;;;;;;5007113;28;20566;-55
2022/04/05 04:45:11;;;;;;;17.53;9.63;;;-1.40;99.90;;;;;;5008851;28;20206;-60
2022/04/05 04:47:37;;;;;;;20.17;9.60;;;-1.30;99.90;;;;;;5008140;28;20766;-64
2022/04/05 04:50:03;;;;;;;36.50;9.90;;;-1.20;99.90;;;;;;5020600;28;20205;-58
2022/04/05 04:52:29;;;;;;;27.47;10.13;;;-1.00;99.90;;;;;;5008417;28;20647;-67
2022/04/05 04:54:55;;;;;;;20.40;8.87;;;-0.80;99.90;;;;;;5016743;28;20218;-68
2022/04/05 04:57:23;;;;;;;24.37;10.00;;;-0.60;99.90;;;;;;5002359;28;20207;-64
2022/04/05 04:59:49;;;;;;;16.20;8.47;;;-0.40;99.90;;;;;;5028110;28;20190;-65
2022/04/05 05:02:16;;;;;;;21.00;9.30;;;-0.30;99.90;;;;;;5013050;28;20241;-63
2022/04/05 05:04:42;;;;;;;11.77;7.80;;;-0.20;99.90;;;;;;5028496;28;20569;-66
2022/04/05 05:07:07;;;;;;;22.27;8.97;;;-0.20;99.90;;;;;;5018012;28;20188;-66
2022/04/05 05:09:33;;;;;;;33.40;9.70;;;0.00;99.90;;;;;;5027843;28;20189;-64
2022/04/05 05:12:00;;;;;;;21.93;9.27;;;0.00;99.90;;;;;;4998312;28;20184;-65
2022/04/05 05:14:27;;;;;;;30.20;9.53;;;0.20;99.90;;;;;;4993237;28;20566;-65
2022/04/05 05:16:54;;;;;;;17.43;7.63;;;0.30;99.90;;;;;;5011014;28;20216;-66
2022/04/05 05:19:21;;;;;;;17.03;8.53;;;0.40;99.90;;;;;;5007554;28;20196;-64
2022/04/05 05:21:47;;;;;;;32.00;10.23;;;0.50;99.90;;;;;;5013257;28;20235;-65
2022/04/05 05:24:12;;;;;;;20.07;8.93;;;0.80;99.90;;;;;;5012714;28;20640;-65
2022/04/05 05:26:38;;;;;;;25.00;12.63;;;1.00;99.90;;;;;;5015109;28;20196;-60
2022/04/05 05:29:04;;;;;;;22.07;11.13;;;1.30;99.90;;;;;;5017042;28;20230;-62
2022/04/05 05:31:29;;;;;;;15.67;8.30;;;1.50;99.90;;;;;;5022955;28;20588;-59
2022/04/05 05:33:55;;;;;;;35.87;8.17;;;1.80;99.90;;;;;;5022474;28;20632;-54
2022/04/05 05:36:21;;;;;;;16.23;8.47;;;2.00;99.90;;;;;;5002675;28;20208;-62
2022/04/05 05:38:47;;;;;;;19.40;8.43;;;2.30;99.90;;;;;;5012015;28;20192;-64
2022/04/05 05:41:12;;;;;;;15.30;7.30;;;2.70;99.90;;;;;;5030409;28;20200;-60
2022/04/05 05:43:38;;;;;;;14.17;7.60;;;3.00;99.90;;;;;;4996393;28;20191;-55
2022/04/05 05:46:06;;;;;;;18.87;8.67;;;3.50;99.90;;;;;;5012043;28;20211;-57
2022/04/05 05:48:33;;;;;;;16.80;8.27;;;3.70;99.70;;;;;;5010049;28;20318;-59
2022/04/05 05:50:59;;;;;;;16.27;8.13;;;3.90;99.30;;;;;;5009670;28;20187;-67
2022/04/05 05:53:25;;;;;;;17.37;8.13;;;3.90;98.60;;;;;;5010295;28;20214;-68
2022/04/05 05:55:51;;;;;;;21.63;9.00;;;4.00;98.70;;;;;;5009386;28;20217;-67
2022/04/05 05:58:17;;;;;;;17.33;9.67;;;4.00;98.40;;;;;;5009425;28;20180;-63
2022/04/05 06:00:43;;;;;;;21.83;9.40;;;4.00;98.20;;;;;;4995197;28;20180;-61
2022/04/05 06:03:10;;;;;;;23.63;8.43;;;4.00;98.50;;;;;;5012673;28;20180;-64
2022/04/05 06:05:36;;;;;;;20.77;9.23;;;4.00;98.90;;;;;;5012386;28;20188;-65
2022/04/05 06:08:04;;;;;;;20.63;11.23;;;4.00;99.10;;;;;;5012088;28;20186;-66
2022/04/05 06:10:30;;;;;;;20.00;8.93;;;3.90;99.80;;;;;;5013080;28;20277;-65
2022/04/05 06:12:57;;;;;;;16.80;8.47;;;3.80;99.90;;;;;;5013259;28;20195;-64
2022/04/05 06:15:25;;;;;;;18.70;7.77;;;3.90;99.80;;;;;;5013830;28;20294;-66
2022/04/05 06:17:51;;;;;;;20.63;9.03;;;3.90;99.60;;;;;;5013885;28;20180;-66
2022/04/05 06:20:19;;;;;;;13.73;7.47;;;4.00;99.60;;;;;;4996084;28;20239;-66
2022/04/05 06:22:49;;;;;;;13.60;7.60;;;4.10;99.20;;;;;;4995225;28;20194;-65
2022/04/05 06:25:23;;;;;;;30.03;8.07;;;4.20;99.00;;;;;;5013778;28;20183;-64
2022/04/05 06:27:49;;;;;;;24.33;7.70;;;4.40;99.00;;;;;;4995433;28;20183;-64
2022/04/05 06:30:16;;;;;;;10.73;6.53;;;4.60;98.60;;;;;;5011549;28;20180;-64
2022/04/05 06:32:42;;;;;;;12.53;7.20;;;4.70;98.10;;;;;;5010940;28;20171;-65
2022/04/05 06:35:10;;;;;;;12.33;7.17;;;4.80;97.80;;;;;;5011039;28;20212;-66
2022/04/05 06:37:37;;;;;;;23.40;7.43;;;4.90;97.70;;;;;;5011071;28;20210;-66
2022/04/05 06:40:05;;;;;;;22.50;7.50;;;5.00;97.30;;;;;;5011442;28;20255;-66
2022/04/05 06:42:31;;;;;;;15.67;7.33;;;5.00;97.00;;;;;;5011327;28;20176;-66
2022/04/05 06:44:57;;;;;;;14.87;7.93;;;5.10;97.10;;;;;;5011980;28;20201;-65
2022/04/05 06:47:23;;;;;;;17.47;7.60;;;5.20;96.90;;;;;;5013038;28;20269;-66
2022/04/05 06:49:49;;;;;;;16.30;7.83;;;5.20;96.90;;;;;;5012400;28;20517;-65
2022/04/05 06:52:15;;;;;;;20.30;8.07;;;5.20;97.10;;;;;;5012007;28;20177;-66
2022/04/05 06:54:41;;;;;;;16.67;8.50;;;5.30;96.90;;;;;;4993774;28;20200;-67
2022/04/05 06:57:07;;;;;;;17.17;8.70;;;5.40;97.00;;;;;;5010406;28;20615;-66
2022/04/05 06:59:32;;;;;;;27.20;9.07;;;5.50;97.10;;;;;;5011237;28;20177;-65
2022/04/05 07:01:58;;;;;;;16.30;8.53;;;5.60;96.80;;;;;;5012536;28;20181;-66
2022/04/05 07:04:24;;;;;;;15.57;8.30;;;5.60;96.30;;;;;;4994561;28;20268;-67
2022/04/05 07:06:50;;;;;;;16.30;8.83;;;5.60;96.10;;;;;;4994856;28;20238;-65
2022/04/05 07:09:16;;;;;;;23.53;9.80;;;5.60;96.00;;;;;;5012635;28;20216;-65
2022/04/05 07:11:41;;;;;;;23.03;9.77;;;5.60;96.20;;;;;;5012614;28;20188;-65
2022/04/05 07:14:08;;;;;;;30.57;11.23;;;5.60;96.30;;;;;;5012698;28;20280;-66
2022/04/05 07:16:33;;;;;;;23.10;8.73;;;5.60;96.60;;;;;;4995147;28;20208;-68
2022/04/05 07:18:59;;;;;;;24.13;10.47;;;5.60;96.70;;;;;;4994174;28;20197;-66
2022/04/05 07:21:26;;;;;;;19.40;9.13;;;5.60;96.40;;;;;;5012482;28;20228;-65
2022/04/05 07:23:52;;;;;;;17.07;8.53;;;5.90;96.50;;;;;;5012469;28;20669;-66
2022/04/05 07:26:21;;;;;;;12.63;8.37;;;6.30;96.10;;;;;;5012540;28;20197;-67
2022/04/05 07:28:47;;;;;;;20.97;10.20;;;6.60;95.30;;;;;;5012411;28;20209;-67
2022/04/05 07:31:13;;;;;;;25.07;9.03;;;6.90;95.20;;;;;;5011946;28;20234;-66
2022/04/05 07:33:40;;;;;;;19.20;8.83;;;7.20;94.90;;;;;;4994264;28;20184;-66
2022/04/05 07:36:06;;;;;;;21.47;10.13;;;7.50;93.70;;;;;;5012102;28;20207;-66
2022/04/05 07:38:31;;;;;;;31.07;12.40;;;7.90;92.80;;;;;;5012319;28;20182;-66
2022/04/05 07:40:57;;;;;;;16.17;7.57;;;8.00;92.20;;;;;;5011851;28;20532;-65
2022/04/05 07:43:25;;;;;;;16.20;9.00;;;8.40;91.50;;;;;;5012096;28;20180;-66
2022/04/05 07:45:52;;;;;;;15.87;7.17;;;8.50;91.30;;;;;;5012369;28;20275;-66
2022/04/05 07:48:23;;;;;;;20.87;8.03;;;8.40;90.50;;;;;;5011855;28;20180;-67
2022/04/05 07:50:49;;;;;;;55.13;17.37;;;8.30;90.20;;;;;;5012143;28;20267;-66
2022/04/05 07:53:16;;;;;;;16.73;7.67;;;8.20;90.20;;;;;;5011660;28;20568;-65
2022/04/05 07:55:42;;;;;;;16.67;8.20;;;8.10;90.10;;;;;;5012168;28;20215;-67
2022/04/05 07:58:07;;;;;;;14.30;7.43;;;8.10;90.10;;;;;;5011619;28;20192;-66
2022/04/05 08:00:33;;;;;;;16.53;7.87;;;8.20;89.50;;;;;;5011811;28;20651;-66
2022/04/05 08:02:59;;;;;;;28.67;9.80;;;8.40;89.90;;;;;;5011346;28;20176;-66
2022/04/05 08:05:25;;;;;;;18.00;7.67;;;8.70;89.50;;;;;;5011124;28;20203;-66
2022/04/05 08:07:51;;;;;;;15.70;6.83;;;8.90;88.30;;;;;;5009579;28;20185;-65
2022/04/05 08:10:17;;;;;;;14.07;7.43;;;9.20;87.50;;;;;;5011301;28;20247;-65
2022/04/05 08:12:46;;;;;;;19.77;8.77;;;9.00;84.90;;;;;;5011566;28;20859;-65
2022/04/05 08:15:14;;;;;;;10.00;6.73;;;8.90;84.70;;;;;;5011229;28;20220;-67
2022/04/05 08:17:40;;;;;;;13.77;7.47;;;8.60;84.50;;;;;;5010312;28;20179;-65
2022/04/05 08:20:07;;;;;;;11.83;6.20;;;8.60;84.80;;;;;;5011430;28;20553;-65
2022/04/05 08:22:33;;;;;;;11.80;6.43;;;8.60;82.80;;;;;;5009169;28;20194;-66
2022/04/05 08:24:59;;;;;;;14.97;6.97;;;8.70;81.90;;;;;;5011187;28;20203;-66
2022/04/05 08:27:25;;;;;;;16.83;6.50;;;8.80;81.80;;;;;;5011048;28;20196;-66
2022/04/05 08:29:50;;;;;;;11.17;6.03;;;8.90;81.00;;;;;;5011717;28;20189;-64
2022/04/05 08:32:16;;;;;;;8.90;6.23;;;8.80;80.20;;;;;;5011149;28;20187;-66
2022/04/05 08:34:42;;;;;;;12.83;6.63;;;8.90;80.20;;;;;;5011196;28;20282;-66
2022/04/05 08:37:09;;;;;;;11.00;6.60;;;9.00;80.30;;;;;;5009662;28;20196;-66
2022/04/05 08:39:35;;;;;;;8.23;5.80;;;9.00;79.00;;;;;;5010778;28;20178;-65
2022/04/05 08:42:03;;;;;;;8.70;6.03;;;9.10;78.60;;;;;;5010703;28;20271;-65
2022/04/05 08:44:29;;;;;;;17.07;6.73;;;8.90;78.60;;;;;;5011524;28;20183;-66
2022/04/05 08:46:55;;;;;;;16.67;6.83;;;8.90;79.00;;;;;;5011106;28;20574;-65
2022/04/05 08:49:22;;;;;;;12.33;5.37;;;9.00;78.90;;;;;;5010831;28;20314;-66
2022/04/05 08:51:49;;;;;;;11.80;5.90;;;8.90;78.80;;;;;;5011659;28;20223;-67
2022/04/05 08:54:15;;;;;;;16.67;6.07;;;8.90;78.50;;;;;;5010366;28;20187;-67
2022/04/05 08:56:41;;;;;;;14.70;6.27;;;8.90;77.70;;;;;;5010714;28;20231;-66
2022/04/05 08:59:07;;;;;;;8.43;5.63;;;9.10;77.70;;;;;;5010169;28;20248;-66
2022/04/05 09:01:34;;;;;;;14.77;7.07;;;9.00;76.70;;;;;;5009584;28;20197;-66
2022/04/05 09:04:00;;;;;;;8.77;5.97;;;9.20;77.20;;;;;;5010158;28;20186;-65
2022/04/05 09:06:28;;;;;;;9.40;5.50;;;9.40;76.70;;;;;;5010388;28;20197;-65
2022/04/05 09:09:05;;;;;;;8.53;5.10;;;9.60;75.90;;;;;;5008656;28;20188;-66
2022/04/05 09:11:31;;;;;;;10.03;4.87;;;9.60;75.00;;;;;;5010523;28;20451;-66
2022/04/05 09:13:59;;;;;;;11.10;5.57;;;9.70;74.50;;;;;;5011191;28;20750;-67
2022/04/05 09:16:34;;;;;;;10.17;5.47;;;9.80;74.50;;;;;;5010441;28;20210;-66
2022/04/05 09:19:08;;;;;;;9.67;5.77;;;10.00;74.10;;;;;;5009909;28;20701;-66
2022/04/05 09:21:54;;;;;;;7.37;5.10;;;10.20;73.90;;;;;;5010684;28;20176;-66
2022/04/05 09:24:20;;;;;;;7.43;5.00;;;10.20;72.20;;;;;;5010917;28;20207;-67
2022/04/05 09:26:46;;;;;;;11.73;5.33;;;10.30;72.80;;;;;;5010620;28;20229;-67
2022/04/05 09:29:14;;;;;;;7.13;4.93;;;10.50;72.10;;;;;;5010197;28;20492;-68
2022/04/05 09:31:47;;;;;;;7.37;4.77;;;10.70;71.40;;;;;;5010418;28;20405;-66
2022/04/05 09:34:19;;;;;;;10.90;4.80;;;10.90;70.20;;;;;;5011686;28;20314;-67
2022/04/05 09:36:50;;;;;;;7.20;4.53;;;11.10;70.40;;;;;;4994659;28;20205;-69
2022/04/05 09:39:21;;;;;;;7.87;4.23;;;11.10;69.10;;;;;;4993937;28;20510;-67
2022/04/05 09:41:49;;;;;;;10.13;5.10;;;11.20;68.90;;;;;;4992626;28;20238;-67
2022/04/05 09:44:27;;;;;;;14.27;4.83;;;11.60;68.30;;;;;;4992775;28;20194;-67
2022/04/05 09:47:02;;;;;;;9.80;5.03;;;11.70;67.70;;;;;;4994654;28;20334;-67
2022/04/05 09:49:36;;;;;;;8.63;4.50;;;12.10;66.80;;;;;;4994623;28;20262;-67
2022/04/05 09:52:02;;;;;;;10.90;5.07;;;12.40;65.90;;;;;;4994051;28;20187;-67
2022/04/05 09:54:30;;;;;;;7.63;4.60;;;12.10;64.90;;;;;;4990354;28;20289;-67
2022/04/05 09:57:02;;;;;;;10.23;5.07;;;11.70;65.40;;;;;;4992437;28;20656;-69
2022/04/05 09:59:37;;;;;;;13.37;6.03;;;11.80;65.80;;;;;;4992237;28;20198;-66
2022/04/05 10:02:15;;;;;;;14.53;5.50;;;11.90;66.00;;;;;;4993773;28;20267;-68
2022/04/05 10:05:05;;;;;;;11.70;5.70;;;11.90;66.30;;;;;;4994107;28;20287;-67
2022/04/05 10:07:32;;;;;;;10.87;5.83;;;11.90;66.40;;;;;;4993431;28;20179;-66
2022/04/05 10:09:59;;;;;;;8.63;5.27;;;11.60;66.00;;;;;;4992470;28;20191;-67
2022/04/05 10:12:25;;;;;;;13.03;4.93;;;11.50;66.40;;;;;;4994263;28;20178;-66
2022/04/05 10:14:52;;;;;;;14.10;5.67;;;11.50;66.80;;;;;;4993578;28;20246;-67
2022/04/05 10:17:22;;;;;;;13.80;6.40;;;11.30;67.00;;;;;;4993887;28;20251;-67
2022/04/05 10:19:50;;;;;;;9.40;5.63;;;11.50;67.30;;;;;;4991639;28;20744;-66
2022/04/05 10:22:17;;;;;;;15.53;5.47;;;11.50;67.20;;;;;;4993537;28;20333;-68
2022/04/05 10:24:44;;;;;;;20.33;6.10;;;11.40;67.60;;;;;;4993325;28;20259;-67
2022/04/05 10:27:11;;;;;;;15.57;5.73;;;11.30;67.30;;;;;;5004097;28;20287;-67
2022/04/05 10:29:37;;;;;;;11.87;5.73;;;10.90;67.80;;;;;;5013190;28;20196;-67
2022/04/05 10:32:32;;;;;;;9.27;5.33;;;11.00;68.50;;;;;;5013176;28;20885;-67
2022/04/05 10:35:08;;;;;;;10.23;4.97;;;10.80;68.50;;;;;;5013086;28;20187;-67
2022/04/05 10:37:41;;;;;;;8.40;5.43;;;10.80;69.20;;;;;;5012955;28;20193;-67
2022/04/05 10:40:10;;;;;;;12.73;4.70;;;10.60;68.80;;;;;;5012704;28;20230;-67
2022/04/05 10:42:38;;;;;;;11.33;4.87;;;10.50;69.40;;;;;;5012566;28;20663;-67
2022/04/05 10:45:15;;;;;;;11.77;5.10;;;10.50;69.60;;;;;;5012210;28;20342;-68
2022/04/05 10:47:59;;;;;;;8.67;4.83;;;10.80;69.70;;;;;;5012748;28;20195;-67
2022/04/05 10:50:25;;;;;;;11.20;5.03;;;11.20;68.90;;;;;;5011897;28;20312;-67
2022/04/05 10:53:20;;;;;;;18.57;5.83;;;11.60;67.90;;;;;;5012586;28;20185;-68
2022/04/05 10:56:04;;;;;;;30.73;6.03;;;11.70;67.60;;;;;;5012659;28;20214;-67
2022/04/05 10:58:31;;;;;;;14.30;5.27;;;11.90;67.30;;;;;;5012757;28;20187;-67
2022/04/05 11:01:12;;;;;;;8.83;5.03;;;11.80;66.80;;;;;;5012268;28;20244;-67
2022/04/05 11:03:38;;;;;;;12.53;4.30;;;11.90;67.20;;;;;;5011447;28;20240;-66
2022/04/05 11:06:04;;;;;;;11.13;5.37;;;11.60;66.80;;;;;;5010538;28;20194;-68
2022/04/05 11:08:31;;;;;;;7.90;5.43;;;11.40;67.50;;;;;;5012702;28;20191;-67
2022/04/05 11:11:00;;;;;;;16.37;6.07;;;11.50;68.10;;;;;;5010993;28;20278;-67
2022/04/05 11:13:39;;;;;;;10.53;5.00;;;11.50;67.80;;;;;;5012272;28;20530;-67
2022/04/05 11:16:10;;;;;;;12.10;5.50;;;11.60;67.90;;;;;;5011614;28;20214;-67
2022/04/05 11:18:37;;;;;;;13.90;5.67;;;11.60;67.30;;;;;;5012388;28;20295;-67
2022/04/05 11:21:08;;;;;;;12.30;5.40;;;11.60;67.50;;;;;;5012559;28;20229;-67
2022/04/05 11:23:49;;;;;;;9.57;4.93;;;11.40;67.40;;;;;;5012456;28;20174;-67
2022/04/05 11:26:30;;;;;;;13.00;5.17;;;11.20;68.40;;;;;;5012103;28;20199;-67
2022/04/05 11:28:57;;;;;;;15.77;6.00;;;10.80;68.80;;;;;;5012379;28;20183;-67
2022/04/05 11:31:32;;;;;;;14.67;6.10;;;10.50;69.90;;;;;;4994385;28;20187;-67
2022/04/05 11:33:59;;;;;;;18.00;5.53;;;10.40;70.30;;;;;;5012582;28;20179;-67
2022/04/05 11:36:28;;;;;;;12.67;5.27;;;10.30;70.50;;;;;;5011435;28;20326;-67
2022/04/05 11:38:58;;;;;;;14.67;5.63;;;10.10;71.00;;;;;;5011792;28;20208;-67
2022/04/05 11:41:23;;;;;;;9.57;5.03;;;9.90;71.60;;;;;;5011227;28;20206;-68
2022/04/05 11:44:00;;;;;;;10.80;4.80;;;9.80;72.00;;;;;;5012170;28;20626;-66
2022/04/05 11:46:28;;;;;;;15.93;4.83;;;9.80;71.90;;;;;;5011516;28;20885;-69
2022/04/05 11:48:57;;;;;;;9.37;4.33;;;9.70;72.30;;;;;;5011635;28;20217;-66
2022/04/05 11:51:25;;;;;;;16.83;4.97;;;9.60;72.30;;;;;;4994095;28;20540;-66
2022/04/05 11:54:01;;;;;;;14.17;4.53;;;9.50;72.50;;;;;;5012474;28;20399;-67
2022/04/05 11:56:27;;;;;;;7.93;5.03;;;9.40;72.70;;;;;;5010561;28;20251;-68
2022/04/05 11:58:58;;;;;;;15.03;4.90;;;9.50;72.80;;;;;;5011913;28;20629;-67
2022/04/05 12:01:26;;;;;;;10.80;4.77;;;9.40;72.80;;;;;;5010469;28;20189;-67
2022/04/05 12:03:54;;;;;;;11.87;5.83;;;9.40;72.90;;;;;;5011842;28;20638;-67
2022/04/05 12:06:26;;;;;;;9.57;4.93;;;9.40;73.00;;;;;;5011387;28;20594;-65
2022/04/05 12:08:53;;;;;;;10.07;5.00;;;9.40;73.00;;;;;;5012118;28;20171;-66
2022/04/05 12:11:21;;;;;;;8.43;4.40;;;9.30;72.90;;;;;;5011133;28;20631;-66
2022/04/05 12:13:58;;;;;;;6.77;3.80;;;9.30;72.60;;;;;;5010168;28;20193;-68
2022/04/05 12:16:42;;;;;;;14.53;4.53;;;9.30;71.90;;;;;;5011137;28;20205;-67
2022/04/05 12:19:08;;;;;;;10.33;4.70;;;9.30;71.60;;;;;;5009552;28;20196;-67
2022/04/05 12:21:35;;;;;;;12.97;4.40;;;9.30;71.60;;;;;;5011333;28;20199;-67
2022/04/05 12:24:01;;;;;;;9.53;4.90;;;9.40;71.50;;;;;;5011537;28;20193;-67
2022/04/05 12:26:31;;;;;;;8.13;4.47;;;9.40;71.50;;;;;;5010511;28;20263;-66
2022/04/05 12:28:59;;;;;;;8.87;5.03;;;9.40;71.50;;;;;;5010847;28;20567;-65
2022/04/05 12:31:30;;;;;;;13.67;5.23;;;9.50;71.70;;;;;;5010968;28;20188;-66
2022/04/05 12:34:00;;;;;;;7.53;4.63;;;9.50;71.80;;;;;;5011331;28;20221;-67
2022/04/05 12:36:52;;;;;;;9.57;5.20;;;9.70;71.80;;;;;;5010781;28;20552;-66
2022/04/05 12:39:25;;;;;;;9.03;4.90;;;9.70;71.50;;;;;;5003384;28;20202;-66
2022/04/05 12:42:04;;;;;;;6.50;4.50;;;9.80;71.60;;;;;;5011391;28;20182;-65
2022/04/05 12:44:32;;;;;;;13.93;5.80;;;9.80;71.50;;;;;;5010632;28;20193;-68
2022/04/05 12:47:05;;;;;;;10.17;4.63;;;9.90;71.30;;;;;;4999578;28;20249;-68